createdAt,value
2017-02-17T00:00:57.306Z,43
2017-02-17T00:03:29.854Z,44
2017-02-17T00:06:02.377Z,41
2017-02-17T00:08:34.948Z,44
2017-02-17T00:11:07.927Z,43
2017-02-17T00:13:40.527Z,44
2017-02-17T00:16:14.043Z,41
2017-02-17T00:18:46.600Z,39
2017-02-17T00:21:19.770Z,38
2017-02-17T00:23:52.382Z,40
2017-02-17T00:26:24.918Z,39
2017-02-17T00:28:58.272Z,39
2017-02-17T00:31:31.700Z,36
2017-02-17T00:34:04.262Z,33
2017-02-17T00:36:37.260Z,35
2017-02-17T00:39:09.801Z,36
2017-02-17T00:41:42.785Z,38
2017-02-17T00:44:15.333Z,33
2017-02-17T00:46:48.410Z,0
2017-02-17T00:49:21.520Z,0
2017-02-17T00:51:54.495Z,0
2017-02-17T00:54:27.068Z,0
2017-02-17T00:56:59.631Z,0
2017-02-17T00:59:32.198Z,0
2017-02-17T01:02:05.603Z,0
2017-02-17T01:04:38.119Z,0
2017-02-17T01:07:11.083Z,0
2017-02-17T01:09:43.833Z,0
2017-02-17T01:12:16.773Z,0
2017-02-17T01:14:49.402Z,0
2017-02-17T01:17:21.969Z,0
2017-02-17T01:19:54.481Z,0
2017-02-17T01:22:27.044Z,0
2017-02-17T01:25:00.245Z,0
2017-02-17T01:27:34.195Z,0
2017-02-17T01:30:06.732Z,0
2017-02-17T01:32:39.701Z,0
2017-02-17T01:35:12.255Z,0
2017-02-17T01:37:44.891Z,0
2017-02-17T01:40:17.452Z,0
2017-02-17T01:42:49.960Z,0
2017-02-17T01:45:22.937Z,0
2017-02-17T01:47:55.485Z,0
2017-02-17T01:50:28.046Z,0
2017-02-17T01:53:00.626Z,0
2017-02-17T01:55:33.599Z,0
2017-02-17T01:58:06.398Z,0
2017-02-17T02:00:38.948Z,0
2017-02-17T02:03:11.939Z,0
2017-02-17T02:05:45.314Z,0
2017-02-17T02:08:18.039Z,0
2017-02-17T02:10:50.585Z,0
2017-02-17T02:13:23.561Z,0
2017-02-17T02:15:56.143Z,0
2017-02-17T02:18:28.943Z,0
2017-02-17T02:21:01.508Z,0
2017-02-17T02:23:34.490Z,0
2017-02-17T02:26:07.678Z,0
2017-02-17T02:28:40.238Z,0
2017-02-17T02:31:13.639Z,0
2017-02-17T02:33:46.604Z,0
2017-02-17T02:36:19.594Z,0
2017-02-17T02:38:52.162Z,0
2017-02-17T02:41:25.352Z,0
2017-02-17T02:43:57.873Z,0
2017-02-17T02:46:30.422Z,0
2017-02-17T02:49:03.787Z,0
2017-02-17T02:51:36.311Z,0
2017-02-17T02:54:08.874Z,0
2017-02-17T02:56:41.841Z,0
2017-02-17T02:59:14.867Z,0
2017-02-17T03:01:47.394Z,0
2017-02-17T03:04:19.933Z,0
2017-02-17T03:06:52.460Z,0
2017-02-17T03:09:24.999Z,0
2017-02-17T03:11:57.536Z,0
2017-02-17T03:14:30.062Z,0
2017-02-17T03:17:02.604Z,0
2017-02-17T03:19:35.120Z,0
2017-02-17T03:22:07.663Z,0
2017-02-17T03:24:40.607Z,0
2017-02-17T03:27:13.134Z,0
2017-02-17T03:29:45.662Z,0
2017-02-17T03:32:18.616Z,0
2017-02-17T03:34:51.176Z,0
2017-02-17T03:37:23.729Z,0
2017-02-17T03:39:56.724Z,0
2017-02-17T03:42:29.251Z,0
2017-02-17T03:45:01.795Z,0
2017-02-17T03:47:35.177Z,0
2017-02-17T03:50:08.155Z,0
2017-02-17T03:52:40.694Z,0
2017-02-17T03:55:13.689Z,0
2017-02-17T03:57:46.215Z,0
2017-02-17T04:00:18.757Z,0
2017-02-17T04:02:51.705Z,0
2017-02-17T04:05:24.230Z,0
2017-02-17T04:07:57.199Z,0
2017-02-17T04:10:30.183Z,0
2017-02-17T04:13:02.710Z,0
2017-02-17T04:15:35.232Z,0
2017-02-17T04:18:07.794Z,0
2017-02-17T04:20:40.328Z,0
2017-02-17T04:23:13.743Z,0
2017-02-17T04:25:46.678Z,0
2017-02-17T04:28:19.232Z,0
2017-02-17T04:30:51.777Z,0
2017-02-17T04:33:24.291Z,0
2017-02-17T04:35:57.256Z,0
2017-02-17T04:38:29.772Z,0
2017-02-17T04:41:02.730Z,0
2017-02-17T04:43:35.248Z,0
2017-02-17T04:46:07.784Z,0
2017-02-17T04:48:40.316Z,0
2017-02-17T04:51:13.265Z,0
2017-02-17T04:53:45.801Z,0
2017-02-17T04:56:18.745Z,0
2017-02-17T04:58:51.287Z,0
2017-02-17T05:01:24.676Z,0
2017-02-17T05:03:57.241Z,0
2017-02-17T05:06:30.222Z,0
2017-02-17T05:09:02.762Z,0
2017-02-17T05:11:35.715Z,0
2017-02-17T05:14:08.707Z,0
2017-02-17T05:16:41.650Z,0
2017-02-17T05:19:14.181Z,0
2017-02-17T05:21:46.714Z,0
2017-02-17T05:24:19.247Z,0
2017-02-17T05:26:51.807Z,0
2017-02-17T05:29:24.342Z,0
2017-02-17T05:31:56.873Z,0
2017-02-17T05:34:29.401Z,0
2017-02-17T05:37:02.134Z,0
2017-02-17T05:39:35.086Z,0
2017-02-17T05:42:08.048Z,0
2017-02-17T05:44:40.600Z,0
2017-02-17T05:47:13.570Z,0
2017-02-17T05:49:46.130Z,0
2017-02-17T05:52:19.080Z,0
2017-02-17T05:54:51.635Z,0
2017-02-17T05:57:24.582Z,0
2017-02-17T05:59:57.125Z,0
2017-02-17T06:02:29.640Z,0
2017-02-17T06:05:02.189Z,0
2017-02-17T06:07:35.128Z,0
2017-02-17T06:10:08.100Z,0
2017-02-17T06:12:40.642Z,0
2017-02-17T06:15:13.593Z,0
2017-02-17T06:17:46.138Z,0
2017-02-17T06:20:18.675Z,0
2017-02-17T06:22:51.237Z,0
2017-02-17T06:25:23.777Z,0
2017-02-17T06:27:56.759Z,1
2017-02-17T06:30:29.315Z,1
2017-02-17T06:33:01.838Z,1
2017-02-17T06:35:34.419Z,1
2017-02-17T06:38:06.966Z,2
2017-02-17T06:40:40.125Z,2
2017-02-17T06:43:12.691Z,0
2017-02-17T06:45:45.275Z,0
2017-02-17T06:48:17.819Z,1
2017-02-17T06:50:50.386Z,3
2017-02-17T06:53:23.358Z,1
2017-02-17T06:55:55.885Z,1
2017-02-17T06:58:28.424Z,3
2017-02-17T07:01:00.952Z,3
2017-02-17T07:03:33.926Z,4
2017-02-17T07:06:06.890Z,3
2017-02-17T07:08:39.863Z,4
2017-02-17T07:11:13.239Z,3
2017-02-17T07:13:45.763Z,3
2017-02-17T07:16:18.289Z,3
2017-02-17T07:18:50.818Z,3
2017-02-17T07:21:23.790Z,4
2017-02-17T07:23:56.345Z,2
2017-02-17T07:26:29.085Z,4
2017-02-17T07:29:02.490Z,3
2017-02-17T07:31:35.501Z,4
2017-02-17T07:34:08.030Z,5
2017-02-17T07:36:40.576Z,6
2017-02-17T07:39:13.961Z,4
2017-02-17T07:41:46.952Z,5
2017-02-17T07:44:19.479Z,6
2017-02-17T07:46:52.040Z,7
2017-02-17T07:49:24.589Z,8
2017-02-17T07:51:57.146Z,9
2017-02-17T07:54:30.551Z,12
2017-02-17T07:57:03.959Z,15
2017-02-17T07:59:36.960Z,11
2017-02-17T08:02:09.497Z,11
2017-02-17T08:04:42.446Z,9
2017-02-17T08:07:14.973Z,7
2017-02-17T08:09:47.522Z,8
2017-02-17T08:12:20.055Z,9
2017-02-17T08:14:52.626Z,9
2017-02-17T08:17:25.217Z,9
2017-02-17T08:19:57.822Z,10
2017-02-17T08:22:30.415Z,10
2017-02-17T08:25:03.477Z,12
2017-02-17T08:27:36.980Z,10
2017-02-17T08:30:09.982Z,9
2017-02-17T08:32:43.300Z,11
2017-02-17T08:35:15.883Z,11
2017-02-17T08:37:49.317Z,10
2017-02-17T08:40:21.953Z,10
2017-02-17T08:42:54.565Z,11
2017-02-17T08:45:28.002Z,12
2017-02-17T08:48:00.598Z,13
2017-02-17T08:50:33.208Z,13
2017-02-17T08:53:06.227Z,14
2017-02-17T08:55:38.819Z,13
2017-02-17T08:58:11.366Z,17
2017-02-17T09:00:44.397Z,19
2017-02-17T09:03:17.015Z,17
2017-02-17T09:05:49.939Z,18
2017-02-17T09:08:22.624Z,16
2017-02-17T09:10:55.230Z,15
2017-02-17T09:13:27.797Z,14
2017-02-17T09:16:00.587Z,18
2017-02-17T09:18:33.154Z,19
2017-02-17T09:21:05.761Z,18
2017-02-17T09:23:38.770Z,21
2017-02-17T09:26:11.353Z,26
2017-02-17T09:28:43.906Z,32
2017-02-17T09:31:16.920Z,42
2017-02-17T09:33:49.610Z,49
2017-02-17T09:36:22.212Z,45
2017-02-17T09:38:54.991Z,39
2017-02-17T09:41:27.553Z,35
2017-02-17T09:44:01.003Z,24
2017-02-17T09:46:33.605Z,19
2017-02-17T09:49:06.261Z,20
2017-02-17T09:51:39.023Z,20
2017-02-17T09:54:11.585Z,23
2017-02-17T09:56:44.251Z,25
2017-02-17T09:59:17.023Z,22
2017-02-17T10:01:49.723Z,25
2017-02-17T10:04:22.380Z,27
2017-02-17T10:06:55.092Z,26
2017-02-17T10:09:27.667Z,27
2017-02-17T10:12:00.287Z,23
2017-02-17T10:14:33.734Z,23
2017-02-17T10:17:06.362Z,22
2017-02-17T10:19:39.345Z,24
2017-02-17T10:22:11.902Z,24
2017-02-17T10:24:45.048Z,27
2017-02-17T10:27:17.711Z,25
2017-02-17T10:29:51.311Z,37
2017-02-17T10:32:23.873Z,35
2017-02-17T10:34:56.854Z,34
2017-02-17T10:37:29.934Z,37
2017-02-17T10:40:02.488Z,39
2017-02-17T10:42:35.073Z,41
2017-02-17T10:45:08.053Z,47
2017-02-17T10:47:40.885Z,42
2017-02-17T10:50:14.196Z,42
2017-02-17T10:52:47.911Z,36
2017-02-17T10:55:20.492Z,33
2017-02-17T10:57:53.063Z,29
2017-02-17T11:00:26.083Z,30
2017-02-17T11:02:58.663Z,37
2017-02-17T11:05:31.319Z,43
2017-02-17T11:08:03.920Z,44
2017-02-17T11:10:36.668Z,48
2017-02-17T11:13:09.262Z,48
2017-02-17T11:15:41.998Z,48
2017-02-17T11:18:14.668Z,44
2017-02-17T11:20:47.216Z,36
2017-02-17T11:23:20.550Z,35
2017-02-17T11:25:53.563Z,38
2017-02-17T11:28:26.160Z,42
2017-02-17T11:30:59.196Z,43
2017-02-17T11:33:32.347Z,35
2017-02-17T11:36:04.924Z,35
2017-02-17T11:38:37.607Z,33
2017-02-17T11:41:10.512Z,37
2017-02-17T11:43:43.107Z,45
2017-02-17T11:46:15.810Z,53
2017-02-17T11:48:48.460Z,48
2017-02-17T11:51:21.177Z,54
2017-02-17T11:53:53.934Z,57
2017-02-17T11:56:26.465Z,50
2017-02-17T11:58:59.010Z,51
2017-02-17T12:01:31.566Z,53
2017-02-17T12:04:04.527Z,40
2017-02-17T12:06:37.064Z,35
2017-02-17T12:09:09.603Z,34
2017-02-17T12:11:42.391Z,42
2017-02-17T12:14:14.925Z,37
2017-02-17T12:16:47.481Z,28
2017-02-17T12:19:20.555Z,25
2017-02-17T12:21:53.526Z,23
2017-02-17T12:24:26.102Z,32
2017-02-17T12:26:59.465Z,34
2017-02-17T12:29:32.469Z,35
2017-02-17T12:32:05.060Z,44
2017-02-17T12:34:38.451Z,39
2017-02-17T12:37:11.030Z,33
2017-02-17T12:39:43.636Z,39
2017-02-17T12:42:16.808Z,43
2017-02-17T12:44:50.202Z,38
2017-02-17T12:47:22.948Z,36
2017-02-17T12:49:55.551Z,41
2017-02-17T12:52:28.121Z,47
2017-02-17T12:55:01.097Z,38
2017-02-17T12:57:34.515Z,37
2017-02-17T13:00:07.092Z,36
2017-02-17T13:02:39.670Z,35
2017-02-17T13:05:12.215Z,35
2017-02-17T13:07:44.777Z,32
2017-02-17T13:13:22.637Z,40
2017-02-17T13:15:55.195Z,43
2017-02-17T13:18:28.354Z,51
2017-02-17T13:21:01.364Z,53
2017-02-17T13:23:34.343Z,42
2017-02-17T13:26:06.906Z,50
2017-02-17T13:28:39.451Z,40
2017-02-17T13:31:12.853Z,26
2017-02-17T13:33:45.623Z,22
2017-02-17T13:36:18.583Z,30
2017-02-17T13:38:51.624Z,38
2017-02-17T13:41:24.726Z,23
2017-02-17T13:43:58.118Z,20
2017-02-17T13:46:31.718Z,18
2017-02-17T13:49:04.546Z,27
2017-02-17T13:51:37.133Z,17
2017-02-17T13:54:09.681Z,32
2017-02-17T13:56:42.221Z,31
2017-02-17T13:59:14.794Z,31
2017-02-17T14:01:48.502Z,27
2017-02-17T14:04:21.180Z,24
2017-02-17T14:06:53.724Z,19
2017-02-17T14:09:26.281Z,20
2017-02-17T14:11:58.871Z,25
2017-02-17T14:14:31.408Z,17
2017-02-17T14:17:03.976Z,14
2017-02-17T14:19:36.553Z,12
2017-02-17T14:22:09.561Z,14
2017-02-17T14:24:42.121Z,23
2017-02-17T14:27:14.699Z,20
2017-02-17T14:29:48.151Z,16
2017-02-17T14:32:21.130Z,19
2017-02-17T14:34:53.685Z,17
2017-02-17T14:37:26.681Z,20
2017-02-17T14:39:59.682Z,17
2017-02-17T14:42:32.305Z,21
2017-02-17T14:45:05.045Z,23
2017-02-17T14:47:37.767Z,24
2017-02-17T14:50:10.553Z,22
2017-02-17T14:52:43.105Z,21
2017-02-17T14:55:17.074Z,21
2017-02-17T14:57:49.653Z,22
2017-02-17T15:00:22.198Z,21
2017-02-17T15:02:55.734Z,24
2017-02-17T15:05:28.279Z,22
2017-02-17T15:08:00.974Z,21
2017-02-17T15:10:34.074Z,20
2017-02-17T15:13:06.661Z,21
2017-02-17T15:15:39.211Z,20
2017-02-17T15:18:11.745Z,17
2017-02-17T15:20:44.428Z,15
2017-02-17T15:23:16.971Z,14
2017-02-17T15:25:49.496Z,13
2017-02-17T15:28:22.133Z,12
2017-02-17T15:30:54.780Z,9
2017-02-17T15:33:27.298Z,10
2017-02-17T15:36:00.270Z,9
2017-02-17T15:38:32.946Z,9
2017-02-17T15:41:05.647Z,9
2017-02-17T15:43:39.018Z,5
2017-02-17T15:46:11.559Z,6
2017-02-17T15:48:44.613Z,6
2017-02-17T15:51:17.199Z,4
2017-02-17T15:53:49.738Z,4
2017-02-17T15:56:22.732Z,4
2017-02-17T15:58:55.254Z,4
2017-02-17T16:01:27.844Z,3
2017-02-17T16:04:00.775Z,3
2017-02-17T16:06:34.085Z,3
2017-02-17T16:09:06.660Z,1
2017-02-17T16:11:39.200Z,1
2017-02-17T16:14:11.709Z,1
2017-02-17T16:16:44.238Z,0
2017-02-17T16:19:16.772Z,0
2017-02-17T16:21:49.318Z,2
2017-02-17T16:24:22.290Z,1
2017-02-17T16:26:55.033Z,1
2017-02-17T16:29:27.572Z,1
2017-02-17T16:32:00.127Z,1
2017-02-17T16:34:33.206Z,1
2017-02-17T16:37:05.729Z,1
2017-02-17T16:39:38.269Z,35
2017-02-17T16:42:10.793Z,44
2017-02-17T16:44:43.335Z,46
2017-02-17T16:47:16.504Z,44
2017-02-17T16:49:49.194Z,45
2017-02-17T16:52:21.734Z,45
2017-02-17T16:54:54.276Z,38
2017-02-17T16:57:27.657Z,43
2017-02-17T17:00:00.221Z,63
2017-02-17T17:02:33.758Z,48
2017-02-17T17:05:06.709Z,51
2017-02-17T17:07:39.231Z,50
2017-02-17T17:10:11.759Z,36
2017-02-17T17:12:44.331Z,41
2017-02-17T17:15:17.288Z,42
2017-02-17T17:17:49.855Z,39
2017-02-17T17:20:22.720Z,40
2017-02-17T17:22:55.472Z,42
2017-02-17T17:25:28.420Z,36
2017-02-17T17:28:00.993Z,42
2017-02-17T17:30:34.194Z,38
2017-02-17T17:33:07.146Z,39
2017-02-17T17:35:39.673Z,37
2017-02-17T17:38:12.193Z,38
2017-02-17T17:40:44.760Z,35
2017-02-17T17:43:17.308Z,37
2017-02-17T17:45:50.278Z,35
2017-02-17T17:48:22.826Z,36
2017-02-17T17:50:55.402Z,36
2017-02-17T17:53:27.966Z,35
2017-02-17T17:56:01.363Z,35
2017-02-17T17:58:34.782Z,40
2017-02-17T18:01:07.322Z,38
2017-02-17T18:03:40.323Z,36
2017-02-17T18:06:12.896Z,0
2017-02-17T18:08:45.448Z,0
2017-02-17T18:11:18.844Z,0
2017-02-17T18:13:51.380Z,0
2017-02-17T18:16:23.904Z,0
2017-02-17T18:18:56.468Z,0
2017-02-17T18:21:29.329Z,1
2017-02-17T18:24:01.851Z,0
2017-02-17T18:26:35.443Z,0
2017-02-17T18:29:07.967Z,0
2017-02-17T18:31:40.502Z,0
2017-02-17T18:34:13.059Z,0
2017-02-17T18:36:45.595Z,0
2017-02-17T18:39:18.130Z,0
2017-02-17T18:41:51.109Z,0
2017-02-17T18:44:23.646Z,0
2017-02-17T18:46:56.205Z,0
2017-02-17T18:49:29.190Z,0
2017-02-17T18:52:01.773Z,0
2017-02-17T18:54:34.350Z,0
2017-02-17T18:57:07.296Z,0
2017-02-17T18:59:39.871Z,0
2017-02-17T19:02:12.821Z,0
2017-02-17T19:04:45.350Z,0
2017-02-17T19:07:17.967Z,0
2017-02-17T19:09:50.490Z,0
2017-02-17T19:12:23.071Z,0
2017-02-17T19:14:55.604Z,0
2017-02-17T19:17:28.148Z,0
2017-02-17T19:20:00.684Z,0
2017-02-17T19:22:34.090Z,0
2017-02-17T19:25:06.602Z,0
2017-02-17T19:27:39.158Z,0
2017-02-17T19:30:11.700Z,0
2017-02-17T19:32:44.233Z,0
2017-02-17T19:35:16.982Z,0
2017-02-17T19:37:49.504Z,0
2017-02-17T19:40:22.064Z,0
2017-02-17T19:42:55.016Z,0
2017-02-17T19:45:27.560Z,0
2017-02-17T19:48:00.851Z,0
2017-02-17T19:50:33.387Z,0
2017-02-17T19:53:06.395Z,0
2017-02-17T19:55:38.930Z,0
2017-02-17T19:58:11.477Z,0
2017-02-17T20:00:44.006Z,0
2017-02-17T20:03:16.536Z,0
2017-02-17T20:05:49.513Z,0
2017-02-17T20:08:22.111Z,0
2017-02-17T20:10:55.105Z,0
2017-02-17T20:13:27.687Z,0
2017-02-17T20:16:00.262Z,0
2017-02-17T20:18:33.304Z,0
2017-02-17T20:21:05.861Z,0
2017-02-17T20:23:38.424Z,0
2017-02-17T20:26:10.965Z,0
2017-02-17T20:28:43.952Z,0
2017-02-17T20:31:16.953Z,0
2017-02-17T20:33:49.544Z,0
2017-02-17T20:36:22.111Z,0
2017-02-17T20:38:54.688Z,0
2017-02-17T20:41:28.587Z,0
2017-02-17T20:44:01.585Z,0
2017-02-17T20:46:34.132Z,0
2017-02-17T20:49:07.141Z,0
2017-02-17T20:51:39.738Z,0
2017-02-17T20:54:12.336Z,0
2017-02-17T20:56:44.903Z,0
2017-02-17T20:59:17.468Z,0
2017-02-17T21:01:50.028Z,0
2017-02-17T21:04:22.576Z,0
2017-02-17T21:06:55.544Z,0
2017-02-17T21:09:28.085Z,0
2017-02-17T21:12:00.659Z,1
2017-02-17T21:14:33.603Z,192
2017-02-17T21:19:48.194Z,39
2017-02-17T21:22:22.145Z,131
2017-02-17T21:24:54.914Z,39
2017-02-17T21:27:28.141Z,40
2017-02-17T21:30:01.388Z,39
2017-02-17T21:32:35.144Z,41
2017-02-17T21:37:56.695Z,44
2017-02-17T21:40:29.454Z,39
2017-02-17T21:43:02.178Z,41
2017-02-17T21:45:34.806Z,37
2017-02-17T21:48:07.856Z,39
2017-02-17T21:50:40.932Z,41
2017-02-17T21:53:14.230Z,0
2017-02-17T21:56:00.410Z,0
2017-02-17T21:58:34.209Z,0
2017-02-17T22:01:07.316Z,0
2017-02-17T22:03:40.026Z,0
2017-02-17T22:06:13.456Z,0
2017-02-17T22:08:47.061Z,0
2017-02-17T22:11:19.896Z,0
2017-02-17T22:18:04.918Z,0
2017-02-17T22:20:45.187Z,0
2017-02-17T22:23:17.827Z,0
2017-02-17T22:25:51.522Z,0
2017-02-17T22:28:24.820Z,0
2017-02-17T22:30:57.479Z,0
2017-02-17T22:33:30.538Z,0
2017-02-17T22:36:03.173Z,0
2017-02-17T22:38:36.283Z,0
2017-02-17T22:41:08.920Z,0
2017-02-17T22:43:41.589Z,0
2017-02-17T22:46:14.228Z,0
2017-02-17T22:48:46.883Z,0
2017-02-17T22:51:19.511Z,0
2017-02-17T22:53:52.576Z,0
2017-02-17T22:56:25.655Z,0
2017-02-17T22:58:58.284Z,0
2017-02-17T23:01:30.939Z,0
2017-02-17T23:04:03.803Z,0
2017-02-17T23:06:36.430Z,0
2017-02-17T23:09:09.067Z,0
2017-02-17T23:11:41.709Z,0
2017-02-17T23:14:14.774Z,0
2017-02-17T23:16:47.811Z,0
2017-02-17T23:19:20.829Z,0
2017-02-17T23:21:53.439Z,0
2017-02-17T23:24:26.092Z,0
2017-02-17T23:26:59.120Z,0
2017-02-17T23:29:32.211Z,0
2017-02-17T23:32:04.826Z,0
2017-02-17T23:34:37.948Z,0
2017-02-17T23:37:11.723Z,28
